Time,TemperatureF,DewpointF,PressureIn,WindDirection,WindDirectionDegrees,WindSpeedMPH,WindSpeedGustMPH,Humidity,HourlyPrecipIn,Conditions,Clouds,dailyrainin,SoftwareType,DateUTC
2013-03-28 00:00:00,34.6,18.7,30.24,North,0,0.0,0.0,52,0.00,,,0.00,WUHU216HW,2013-03-28 04:00:00,
2013-03-28 00:05:00,34.4,18.6,30.23,North,0,0.0,0.0,52,0.00,,,0.00,WUHU216HW,2013-03-28 04:05:00,
2013-03-28 00:10:00,34.2,18.4,30.24,North,0,0.0,0.0,52,0.00,,,0.00,WUHU216HW,2013-03-28 04:10:00,
2013-03-28 00:15:00,34.0,18.2,30.24,North,0,0.0,0.0,52,0.00,,,0.00,WUHU216HW,2013-03-28 04:15:00,
2013-03-28 00:21:00,33.7,17.8,30.24,North,0,0.0,0.0,52,0.00,,,0.00,WUHU216HW,2013-03-28 04:21:00,
2013-03-28 00:26:00,33.5,18.1,30.24,North,0,0.0,0.0,53,0.00,,,0.00,WUHU216HW,2013-03-28 04:26:00,
2013-03-28 00:31:00,33.5,18.1,30.24,North,0,0.0,0.0,53,0.00,,,0.00,WUHU216HW,2013-03-28 04:31:00,
2013-03-28 00:36:00,33.5,17.6,30.24,North,0,0.0,0.0,52,0.00,,,0.00,WUHU216HW,2013-03-28 04:36:00,
2013-03-28 00:41:00,33.5,17.6,30.24,North,0,0.0,0.0,52,0.00,,,0.00,WUHU216HW,2013-03-28 04:41:00,
2013-03-28 00:46:00,33.5,17.6,30.24,North,0,0.0,0.0,52,0.00,,,0.00,WUHU216HW,2013-03-28 04:46:00,
2013-03-28 00:51:00,33.1,17.3,30.24,North,0,0.0,0.0,52,0.00,,,0.00,WUHU216HW,2013-03-28 04:51:00,
2013-03-28 00:57:00,32.9,17.6,30.24,North,0,0.0,0.0,53,0.00,,,0.00,WUHU216HW,2013-03-28 04:57:00,
2013-03-28 01:02:00,32.8,17.5,30.24,North,0,0.0,0.0,53,0.00,,,0.00,WUHU216HW,2013-03-28 05:02:00,
2013-03-28 01:07:00,32.4,17.1,30.24,North,0,0.0,0.0,53,0.00,,,0.00,WUHU216HW,2013-03-28 05:07:00,
2013-03-28 01:12:00,32.6,16.8,30.23,North,0,0.0,0.0,52,0.00,,,0.00,WUHU216HW,2013-03-28 05:12:00,
2013-03-28 01:17:00,32.8,17.0,30.23,North,0,0.0,0.0,52,0.00,,,0.00,WUHU216HW,2013-03-28 05:17:00,
2013-03-28 01:22:00,32.6,16.8,30.23,North,0,0.0,0.0,52,0.00,,,0.00,WUHU216HW,2013-03-28 05:22:00,
2013-03-28 01:27:00,32.2,16.5,30.23,North,0,0.0,0.0,52,0.00,,,0.00,WUHU216HW,2013-03-28 05:27:00,
2013-03-28 01:32:00,31.9,16.2,30.23,North,0,0.0,0.0,52,0.00,,,0.00,WUHU216HW,2013-03-28 05:32:00,
2013-03-28 01:38:00,31.3,15.7,30.23,North,0,0.0,0.0,52,0.00,,,0.00,WUHU216HW,2013-03-28 05:38:00,
2013-03-28 01:43:00,31.1,15.5,30.23,North,0,0.0,0.0,52,0.00,,,0.00,WUHU216HW,2013-03-28 05:43:00,
2013-03-28 01:48:00,31.1,15.5,30.23,North,0,0.0,0.0,52,0.00,,,0.00,WUHU216HW,2013-03-28 05:48:00,
2013-03-28 01:53:00,31.3,14.3,30.23,North,0,0.0,0.0,49,0.00,,,0.00,WUHU216HW,2013-03-28 05:53:00,
2013-03-28 01:58:00,31.3,14.9,30.23,North,0,0.0,0.0,50,0.00,,,0.00,WUHU216HW,2013-03-28 05:58:00,
2013-03-28 02:03:00,31.5,14.0,30.23,North,0,0.0,0.0,48,0.00,,,0.00,WUHU216HW,2013-03-28 06:03:00,
2013-03-28 02:08:00,31.5,14.0,30.23,North,0,0.0,0.0,48,0.00,,,0.00,WUHU216HW,2013-03-28 06:08:00,
2013-03-28 02:13:00,31.3,12.8,30.23,North,0,0.0,0.0,46,0.00,,,0.00,WUHU216HW,2013-03-28 06:13:00,
2013-03-28 02:18:00,31.1,12.2,30.23,North,0,0.0,0.0,45,0.00,,,0.00,WUHU216HW,2013-03-28 06:18:00,
2013-03-28 02:23:00,30.8,12.3,30.23,North,0,0.0,0.0,46,0.00,,,0.00,WUHU216HW,2013-03-28 06:23:00,
2013-03-28 02:28:00,30.4,12.0,30.23,North,0,0.0,0.0,46,0.00,,,0.00,WUHU216HW,2013-03-28 06:28:00,
2013-03-28 02:33:00,30.2,11.9,30.23,North,0,0.0,0.0,46,0.00,,,0.00,WUHU216HW,2013-03-28 06:33:00,
2013-03-28 02:38:00,30.2,9.8,30.23,North,0,0.0,0.0,42,0.00,,,0.00,WUHU216HW,2013-03-28 06:38:00,
2013-03-28 02:43:00,30.6,10.2,30.23,North,0,0.0,0.0,42,0.00,,,0.00,WUHU216HW,2013-03-28 06:43:00,
2013-03-28 02:49:00,30.6,10.2,30.23,North,0,0.0,0.0,42,0.00,,,0.00,WUHU216HW,2013-03-28 06:49:00,
2013-03-28 02:54:00,30.8,8.6,30.23,North,0,0.0,0.0,39,0.00,,,0.00,WUHU216HW,2013-03-28 06:54:00,
2013-03-28 02:59:00,30.6,8.6,30.23,North,0,0.0,0.0,39,0.00,,,0.00,WUHU216HW,2013-03-28 06:59:00,
2013-03-28 03:04:00,30.6,8.6,30.23,North,0,0.0,0.0,39,0.00,,,0.00,WUHU216HW,2013-03-28 07:04:00,
2013-03-28 03:09:00,31.0,6.3,30.23,North,0,0.0,0.0,35,0.00,,,0.00,WUHU216HW,2013-03-28 07:09:00,
2013-03-28 03:14:00,31.3,5.4,30.23,North,0,0.0,0.0,33,0.00,,,0.00,WUHU216HW,2013-03-28 07:14:00,
2013-03-28 03:19:00,31.5,6.9,30.23,North,0,0.0,0.0,35,0.00,,,0.00,WUHU216HW,2013-03-28 07:19:00,
2013-03-28 03:24:00,31.5,5.6,30.23,North,0,0.0,0.0,33,0.00,,,0.00,WUHU216HW,2013-03-28 07:24:00,
2013-03-28 03:29:00,31.3,7.3,30.23,North,0,0.0,0.0,36,0.00,,,0.00,WUHU216HW,2013-03-28 07:29:00,
2013-03-28 03:34:00,31.1,5.2,30.24,North,0,0.0,0.0,33,0.00,,,0.00,WUHU216HW,2013-03-28 07:34:00,
2013-03-28 03:39:00,31.3,5.4,30.24,North,0,0.0,0.0,33,0.00,,,0.00,WUHU216HW,2013-03-28 07:39:00,
2013-03-28 03:44:00,31.1,4.0,30.24,North,0,0.0,0.0,31,0.00,,,0.00,WUHU216HW,2013-03-28 07:44:00,
2013-03-28 03:49:00,31.1,3.3,30.24,North,0,0.0,0.0,30,0.00,,,0.00,WUHU216HW,2013-03-28 07:49:00,
2013-03-28 03:54:00,31.0,4.4,30.24,North,0,0.0,0.0,32,0.00,,,0.00,WUHU216HW,2013-03-28 07:54:00,
2013-03-28 03:59:00,31.0,1.4,30.24,North,0,0.0,0.0,28,0.00,,,0.00,WUHU216HW,2013-03-28 07:59:00,
2013-03-28 04:05:00,30.8,2.2,30.24,North,0,0.0,0.0,29,0.00,,,0.00,WUHU216HW,2013-03-28 08:05:00,
2013-03-28 04:10:00,31.0,-5.5,30.23,North,0,0.0,0.0,20,0.00,,,0.00,WUHU216HW,2013-03-28 08:10:00,
2013-03-28 04:15:00,31.3,-5.1,30.23,North,0,0.0,0.0,20,0.00,,,0.00,WUHU216HW,2013-03-28 08:15:00,
2013-03-28 04:20:00,31.3,-7.9,30.23,North,0,0.0,0.0,18,0.00,,,0.00,WUHU216HW,2013-03-28 08:20:00,
2013-03-28 04:25:00,31.3,-3.4,30.23,North,0,0.0,0.0,22,0.00,,,0.00,WUHU216HW,2013-03-28 08:25:00,
2013-03-28 04:30:00,31.3,-5.1,30.23,North,0,0.0,0.0,20,0.00,,,0.00,WUHU216HW,2013-03-28 08:30:00,
2013-03-28 04:35:00,31.7,-1.3,30.23,North,0,0.0,0.0,24,0.00,,,0.00,WUHU216HW,2013-03-28 08:35:00,
2013-03-28 04:40:00,31.7,1.3,30.23,North,0,0.0,0.0,27,0.00,,,0.00,WUHU216HW,2013-03-28 08:40:00,
2013-03-28 04:45:00,31.5,1.9,30.23,North,0,0.0,0.0,28,0.00,,,0.00,WUHU216HW,2013-03-28 08:45:00,
2013-03-28 04:50:00,31.3,1.8,30.23,North,0,0.0,0.0,28,0.00,,,0.00,WUHU216HW,2013-03-28 08:50:00,
2013-03-28 04:55:00,31.7,1.3,30.24,North,0,0.0,0.0,27,0.00,,,0.00,WUHU216HW,2013-03-28 08:55:00,
2013-03-28 05:00:00,31.7,1.3,30.23,North,0,0.0,0.0,27,0.00,,,0.00,WUHU216HW,2013-03-28 09:00:00,
2013-03-28 05:05:00,31.7,-1.3,30.23,North,0,0.0,0.0,24,0.00,,,0.00,WUHU216HW,2013-03-28 09:05:00,
2013-03-28 05:11:00,31.7,3.0,30.23,North,0,0.0,0.0,29,0.00,,,0.00,WUHU216HW,2013-03-28 09:11:00,
2013-03-28 05:16:00,31.5,2.8,30.24,North,0,0.0,0.0,29,0.00,,,0.00,WUHU216HW,2013-03-28 09:16:00,
2013-03-28 05:21:00,31.1,1.6,30.24,North,0,0.0,0.0,28,0.00,,,0.00,WUHU216HW,2013-03-28 09:21:00,
2013-03-28 05:26:00,31.1,-1.0,30.23,North,0,0.0,0.0,25,0.00,,,0.00,WUHU216HW,2013-03-28 09:26:00,
2013-03-28 05:31:00,31.3,-3.4,30.24,North,0,0.0,0.0,22,0.00,,,0.00,WUHU216HW,2013-03-28 09:31:00,
2013-03-28 05:36:00,31.5,-2.4,30.24,North,0,0.0,0.0,23,0.00,,,0.00,WUHU216HW,2013-03-28 09:36:00,
2013-03-28 05:41:00,31.3,0.0,30.24,North,0,0.0,0.0,26,0.00,,,0.00,WUHU216HW,2013-03-28 09:41:00,
2013-03-28 05:46:00,31.1,2.4,30.24,North,0,0.0,0.0,29,0.00,,,0.00,WUHU216HW,2013-03-28 09:46:00,
2013-03-28 05:51:00,30.6,3.5,30.24,North,0,0.0,0.0,31,0.00,,,0.00,WUHU216HW,2013-03-28 09:51:00,
2013-03-28 05:56:00,30.1,3.6,30.24,North,0,0.0,0.0,32,0.00,,,0.00,WUHU216HW,2013-03-28 09:56:00,
2013-03-28 06:02:00,29.5,2.5,30.25,North,0,0.0,0.0,31,0.00,,,0.00,WUHU216HW,2013-03-28 10:02:00,
2013-03-28 06:07:00,29.2,0.7,30.25,North,0,0.0,0.0,29,0.00,,,0.00,WUHU216HW,2013-03-28 10:07:00,
2013-03-28 06:12:00,29.0,-1.2,30.25,North,0,0.0,0.0,27,0.00,,,0.00,WUHU216HW,2013-03-28 10:12:00,
2013-03-28 06:17:00,29.0,-3.7,30.25,North,0,0.0,0.0,24,0.00,,,0.00,WUHU216HW,2013-03-28 10:17:00,
2013-03-28 06:22:00,29.0,-4.6,30.25,North,0,0.0,0.0,23,0.00,,,0.00,WUHU216HW,2013-03-28 10:22:00,
2013-03-28 06:27:00,29.2,-7.0,30.25,North,0,0.0,0.0,20,0.00,,,0.00,WUHU216HW,2013-03-28 10:27:00,
2013-03-28 06:32:00,29.7,-6.6,30.25,North,0,0.0,0.0,20,0.00,,,0.00,WUHU216HW,2013-03-28 10:32:00,
2013-03-28 06:37:00,29.9,-6.4,30.25,North,0,0.0,0.0,20,0.00,,,0.00,WUHU216HW,2013-03-28 10:37:00,
2013-03-28 06:42:00,30.6,-5.7,30.25,North,0,0.0,0.0,20,0.00,,,0.00,WUHU216HW,2013-03-28 10:42:00,
2013-03-28 06:47:00,30.8,-4.8,30.25,North,0,0.0,0.0,21,0.00,,,0.00,WUHU216HW,2013-03-28 10:47:00,
2013-03-28 06:52:00,31.0,-4.6,30.26,North,0,0.0,0.0,21,0.00,,,0.00,WUHU216HW,2013-03-28 10:52:00,
2013-03-28 06:57:00,31.5,-3.2,30.26,North,0,0.0,0.0,22,0.00,,,0.00,WUHU216HW,2013-03-28 10:57:00,
2013-03-28 07:03:00,32.0,-1.1,30.26,North,0,0.0,0.0,24,0.00,,,0.00,WUHU216HW,2013-03-28 11:03:00,
2013-03-28 07:08:00,32.4,-0.7,30.26,North,0,0.0,0.0,24,0.00,,,0.00,WUHU216HW,2013-03-28 11:08:00,
2013-03-28 07:13:00,32.4,1.9,30.26,North,0,0.0,0.0,27,0.00,,,0.00,WUHU216HW,2013-03-28 11:13:00,
2013-03-28 07:18:00,32.4,2.7,30.27,North,0,0.0,0.0,28,0.00,,,0.00,WUHU216HW,2013-03-28 11:18:00,
2013-03-28 07:23:00,32.4,2.7,30.27,North,0,0.0,0.0,28,0.00,,,0.00,WUHU216HW,2013-03-28 11:23:00,
2013-03-28 07:28:00,32.0,1.5,30.27,North,0,0.0,0.0,27,0.00,,,0.00,WUHU216HW,2013-03-28 11:28:00,
2013-03-28 07:33:00,32.2,1.7,30.27,North,0,0.0,0.0,27,0.00,,,0.00,WUHU216HW,2013-03-28 11:33:00,
2013-03-28 07:38:00,32.0,1.5,30.27,North,0,0.0,0.0,27,0.00,,,0.00,WUHU216HW,2013-03-28 11:38:00,
2013-03-28 07:43:00,32.0,-1.1,30.27,North,0,0.0,0.0,24,0.00,,,0.00,WUHU216HW,2013-03-28 11:43:00,
2013-03-28 07:48:00,31.9,-3.8,30.27,North,0,0.0,0.0,21,0.00,,,0.00,WUHU216HW,2013-03-28 11:48:00,
2013-03-28 07:53:00,31.7,-2.2,30.27,North,0,0.0,0.0,23,0.00,,,0.00,WUHU216HW,2013-03-28 11:53:00,
2013-03-28 07:58:00,31.9,-2.1,30.27,North,0,0.0,0.0,23,0.00,,,0.00,WUHU216HW,2013-03-28 11:58:00,
2013-03-28 08:03:00,32.2,-2.6,30.28,North,0,0.0,0.0,22,0.00,,,0.00,WUHU216HW,2013-03-28 12:03:00,
2013-03-28 08:08:00,32.4,-2.5,30.28,North,0,0.0,0.0,22,0.00,,,0.00,WUHU216HW,2013-03-28 12:08:00,
2013-03-28 08:13:00,33.5,-6.1,30.28,North,0,0.0,0.0,18,0.00,,,0.00,WUHU216HW,2013-03-28 12:13:00,
2013-03-28 08:18:00,35.5,-15.8,30.28,North,0,0.0,0.0,10,0.00,,,0.00,WUHU216HW,2013-03-28 12:18:00,
2013-03-28 08:23:00,37.8,-13.9,30.27,North,0,0.0,0.0,9,0.00,,,0.00,WUHU216HW,2013-03-28 12:23:00,
2013-03-28 08:28:00,39.4,-11.2,30.27,North,0,0.0,0.0,11,0.00,,,0.00,WUHU216HW,2013-03-28 12:28:00,
2013-03-28 08:33:00,40.7,5.4,30.27,North,0,0.0,0.0,23,0.00,,,0.00,WUHU216HW,2013-03-28 12:33:00,
2013-03-28 08:38:00,40.5,9.8,30.27,North,0,0.0,0.0,28,0.00,,,0.00,WUHU216HW,2013-03-28 12:38:00,
2013-03-28 08:44:00,40.1,10.4,30.27,North,0,0.0,0.0,29,0.00,,,0.00,WUHU216HW,2013-03-28 12:44:00,
2013-03-28 08:49:00,39.8,11.6,30.27,North,0,0.0,0.0,31,0.00,,,0.00,WUHU216HW,2013-03-28 12:49:00,
2013-03-28 08:54:00,39.6,11.4,30.27,North,0,0.0,0.0,31,0.00,,,0.00,WUHU216HW,2013-03-28 12:54:00,
2013-03-28 08:59:00,39.6,11.4,30.28,North,0,0.0,0.0,31,0.00,,,0.00,WUHU216HW,2013-03-28 12:59:00,
2013-03-28 09:04:00,40.1,11.9,30.28,North,0,0.0,0.0,31,0.00,,,0.00,WUHU216HW,2013-03-28 13:04:00,
2013-03-28 09:09:00,40.7,13.1,30.28,North,0,0.0,0.0,32,0.00,,,0.00,WUHU216HW,2013-03-28 13:09:00,
2013-03-28 09:14:00,41.2,13.5,30.28,North,0,0.0,0.0,32,0.00,,,0.00,WUHU216HW,2013-03-28 13:14:00,
2013-03-28 09:19:00,41.6,16.4,30.28,North,0,0.0,0.0,36,0.00,,,0.00,WUHU216HW,2013-03-28 13:19:00,
2013-03-28 09:24:00,42.1,19.5,30.28,North,0,0.0,0.0,40,0.00,,,0.00,WUHU216HW,2013-03-28 13:24:00,
2013-03-28 09:29:00,42.1,20.1,30.30,North,0,0.0,0.0,41,0.00,,,0.00,WUHU216HW,2013-03-28 13:29:00,
2013-03-28 09:34:00,42.7,21.6,30.30,North,0,0.0,0.0,43,0.00,,,0.00,WUHU216HW,2013-03-28 13:34:00,
2013-03-28 09:39:00,43.6,22.4,30.30,North,0,0.0,0.0,43,0.00,,,0.00,WUHU216HW,2013-03-28 13:39:00,
2013-03-28 09:44:00,43.9,23.9,30.30,North,0,0.0,0.0,45,0.00,,,0.00,WUHU216HW,2013-03-28 13:44:00,
2013-03-28 09:49:00,44.3,24.1,30.30,North,0,0.0,0.0,45,0.00,,,0.00,WUHU216HW,2013-03-28 13:49:00,
2013-03-28 09:54:00,44.6,25.0,30.29,North,0,0.0,0.0,46,0.00,,,0.00,WUHU216HW,2013-03-28 13:54:00,
2013-03-28 09:59:00,45.0,25.4,30.29,North,0,0.0,0.0,46,0.00,,,0.00,WUHU216HW,2013-03-28 13:59:00,
2013-03-28 10:04:00,45.4,25.7,30.29,North,0,0.0,0.0,46,0.00,,,0.00,WUHU216HW,2013-03-28 14:04:00,
2013-03-28 10:09:00,46.1,26.3,30.30,North,0,0.0,0.0,46,0.00,,,0.00,WUHU216HW,2013-03-28 14:09:00,
2013-03-28 10:15:00,46.1,25.2,30.29,North,0,0.0,0.0,44,0.00,,,0.00,WUHU216HW,2013-03-28 14:15:00,
2013-03-28 10:20:00,46.1,25.2,30.29,North,0,0.0,0.0,44,0.00,,,0.00,WUHU216HW,2013-03-28 14:20:00,
2013-03-28 10:25:00,45.5,24.2,30.30,North,0,0.0,0.0,43,0.00,,,0.00,WUHU216HW,2013-03-28 14:25:00,
2013-03-28 10:30:00,45.7,24.9,30.29,North,0,0.0,0.0,44,0.00,,,0.00,WUHU216HW,2013-03-28 14:30:00,
2013-03-28 10:35:00,46.4,25.6,30.29,North,0,0.0,0.0,44,0.00,,,0.00,WUHU216HW,2013-03-28 14:35:00,
2013-03-28 10:40:00,46.8,25.9,30.29,North,0,0.0,0.0,44,0.00,,,0.00,WUHU216HW,2013-03-28 14:40:00,
2013-03-28 10:45:00,47.2,25.1,30.29,North,0,0.0,0.0,42,0.00,,,0.00,WUHU216HW,2013-03-28 14:45:00,
2013-03-28 10:50:00,47.0,24.4,30.28,North,0,0.0,0.0,41,0.00,,,0.00,WUHU216HW,2013-03-28 14:50:00,
2013-03-28 10:55:00,47.2,25.1,30.28,North,0,0.0,0.0,42,0.00,,,0.00,WUHU216HW,2013-03-28 14:55:00,
2013-03-28 11:00:00,47.5,24.9,30.28,North,0,0.0,0.0,41,0.00,,,0.00,WUHU216HW,2013-03-28 15:00:00,
2013-03-28 11:05:00,47.9,25.2,30.28,North,0,0.0,0.0,41,0.00,,,0.00,WUHU216HW,2013-03-28 15:05:00,
2013-03-28 11:10:00,47.7,25.7,30.28,North,0,0.0,0.0,42,0.00,,,0.00,WUHU216HW,2013-03-28 15:10:00,
2013-03-28 11:15:00,48.6,25.4,30.28,North,0,0.0,0.0,40,0.00,,,0.00,WUHU216HW,2013-03-28 15:15:00,
2013-03-28 11:20:00,48.8,25.5,30.28,North,0,0.0,0.0,40,0.00,,,0.00,WUHU216HW,2013-03-28 15:20:00,
2013-03-28 11:25:00,48.6,24.0,30.28,North,0,0.0,0.0,38,0.00,,,0.00,WUHU216HW,2013-03-28 15:25:00,
2013-03-28 11:30:00,48.8,24.1,30.28,North,0,0.0,0.0,38,0.00,,,0.00,WUHU216HW,2013-03-28 15:30:00,
2013-03-28 11:35:00,49.5,24.9,30.27,North,0,0.0,0.0,38,0.00,,,0.00,WUHU216HW,2013-03-28 15:35:00,
2013-03-28 11:40:00,49.7,24.9,30.28,North,0,0.0,0.0,38,0.00,,,0.00,WUHU216HW,2013-03-28 15:40:00,
2013-03-28 11:46:00,50.0,24.6,30.27,North,0,0.0,0.0,37,0.00,,,0.00,WUHU216HW,2013-03-28 15:46:00,
2013-03-28 11:51:00,49.9,25.1,30.27,North,0,0.0,0.0,38,0.00,,,0.00,WUHU216HW,2013-03-28 15:51:00,
2013-03-28 11:56:00,50.0,25.3,30.27,North,0,0.0,0.0,38,0.00,,,0.00,WUHU216HW,2013-03-28 15:56:00,
2013-03-28 12:01:00,50.6,25.7,30.28,North,0,0.0,0.0,38,0.00,,,0.00,WUHU216HW,2013-03-28 16:01:00,
2013-03-28 12:06:00,50.8,25.9,30.27,North,0,0.0,0.0,38,0.00,,,0.00,WUHU216HW,2013-03-28 16:06:00,
2013-03-28 12:11:00,51.5,27.3,30.27,North,0,0.0,0.0,39,0.00,,,0.00,WUHU216HW,2013-03-28 16:11:00,
2013-03-28 12:17:00,51.7,27.5,30.27,North,0,0.0,0.0,39,0.00,,,0.00,WUHU216HW,2013-03-28 16:17:00,
2013-03-28 12:22:00,51.8,25.6,30.27,North,0,0.0,0.0,36,0.00,,,0.00,WUHU216HW,2013-03-28 16:22:00,
2013-03-28 12:27:00,51.8,25.6,30.26,North,0,0.0,0.0,36,0.00,,,0.00,WUHU216HW,2013-03-28 16:27:00,
2013-03-28 12:32:00,52.9,28.5,30.26,North,0,0.0,0.0,39,0.00,,,0.00,WUHU216HW,2013-03-28 16:32:00,
2013-03-28 12:37:00,53.3,26.8,30.26,North,0,0.0,0.0,36,0.00,,,0.00,WUHU216HW,2013-03-28 16:37:00,
2013-03-28 12:42:00,53.5,24.9,30.26,North,0,0.0,0.0,33,0.00,,,0.00,WUHU216HW,2013-03-28 16:42:00,
2013-03-28 12:48:00,53.3,24.8,30.26,North,0,0.0,0.0,33,0.00,,,0.00,WUHU216HW,2013-03-28 16:48:00,
2013-03-28 12:53:00,53.5,25.7,30.25,North,0,0.0,0.0,34,0.00,,,0.00,WUHU216HW,2013-03-28 16:53:00,
2013-03-28 12:58:00,53.3,24.8,30.25,North,0,0.0,0.0,33,0.00,,,0.00,WUHU216HW,2013-03-28 16:58:00,
2013-03-28 13:03:00,53.6,25.7,30.25,North,0,0.0,0.0,34,0.00,,,0.00,WUHU216HW,2013-03-28 17:03:00,
2013-03-28 13:08:00,54.2,25.6,30.25,North,0,0.0,0.0,33,0.00,,,0.00,WUHU216HW,2013-03-28 17:08:00,
2013-03-28 13:13:00,54.2,24.1,30.25,North,0,0.0,0.0,31,0.00,,,0.00,WUHU216HW,2013-03-28 17:13:00,
2013-03-28 13:18:00,54.4,25.7,30.24,North,0,0.0,0.0,33,0.00,,,0.00,WUHU216HW,2013-03-28 17:18:00,
2013-03-28 13:23:00,54.7,24.6,30.25,North,0,0.0,0.0,31,0.00,,,0.00,WUHU216HW,2013-03-28 17:23:00,
2013-03-28 13:28:00,55.1,24.2,30.24,North,0,0.0,0.0,30,0.00,,,0.00,WUHU216HW,2013-03-28 17:28:00,
2013-03-28 13:33:00,55.4,25.2,30.24,North,0,0.0,0.0,31,0.00,,,0.00,WUHU216HW,2013-03-28 17:33:00,
2013-03-28 13:39:00,55.8,23.9,30.24,North,0,0.0,0.0,29,0.00,,,0.00,WUHU216HW,2013-03-28 17:39:00,
2013-03-28 13:44:00,55.6,22.8,30.24,North,0,0.0,0.0,28,0.00,,,0.00,WUHU216HW,2013-03-28 17:44:00,
2013-03-28 13:49:00,55.6,22.8,30.24,North,0,0.0,0.0,28,0.00,,,0.00,WUHU216HW,2013-03-28 17:49:00,
2013-03-28 13:54:00,55.8,23.0,30.23,North,0,0.0,0.0,28,0.00,,,0.00,WUHU216HW,2013-03-28 17:54:00,
2013-03-28 13:59:00,56.3,25.3,30.23,North,0,0.0,0.0,30,0.00,,,0.00,WUHU216HW,2013-03-28 17:59:00,
2013-03-28 14:04:00,56.9,26.5,30.23,North,0,0.0,0.0,31,0.00,,,0.00,WUHU216HW,2013-03-28 18:04:00,
2013-03-28 14:09:00,56.9,24.9,30.23,North,0,0.0,0.0,29,0.00,,,0.00,WUHU216HW,2013-03-28 18:09:00,
2013-03-28 14:14:00,56.9,22.0,30.23,North,0,0.0,0.0,26,0.00,,,0.00,WUHU216HW,2013-03-28 18:14:00,
2013-03-28 14:19:00,57.2,23.2,30.22,North,0,0.0,0.0,27,0.00,,,0.00,WUHU216HW,2013-03-28 18:19:00,
2013-03-28 14:24:00,57.6,22.6,30.22,North,0,0.0,0.0,26,0.00,,,0.00,WUHU216HW,2013-03-28 18:24:00,
2013-03-28 14:29:00,57.6,21.6,30.22,North,0,0.0,0.0,25,0.00,,,0.00,WUHU216HW,2013-03-28 18:29:00,
2013-03-28 14:34:00,57.6,21.6,30.22,North,0,0.0,0.0,25,0.00,,,0.00,WUHU216HW,2013-03-28 18:34:00,
2013-03-28 14:40:00,58.0,19.1,30.22,North,0,0.0,0.0,22,0.00,,,0.00,WUHU216HW,2013-03-28 18:40:00,
2013-03-28 14:45:00,58.0,21.0,30.21,North,0,0.0,0.0,24,0.00,,,0.00,WUHU216HW,2013-03-28 18:45:00,
2013-03-28 14:50:00,58.3,20.4,30.21,North,0,0.0,0.0,23,0.00,,,0.00,WUHU216HW,2013-03-28 18:50:00,
2013-03-28 14:55:00,58.7,20.6,30.21,North,0,0.0,0.0,23,0.00,,,0.00,WUHU216HW,2013-03-28 18:55:00,
2013-03-28 15:00:00,58.9,20.8,30.20,North,0,0.0,0.0,23,0.00,,,0.00,WUHU216HW,2013-03-28 19:00:00,
2013-03-28 15:05:00,58.9,18.8,30.20,North,0,0.0,0.0,21,0.00,,,0.00,WUHU216HW,2013-03-28 19:05:00,
2013-03-28 15:10:00,58.7,18.7,30.20,North,0,0.0,0.0,21,0.00,,,0.00,WUHU216HW,2013-03-28 19:10:00,
2013-03-28 15:15:00,59.2,20.1,30.19,North,0,0.0,0.0,22,0.00,,,0.00,WUHU216HW,2013-03-28 19:15:00,
2013-03-28 15:20:00,59.6,20.4,30.19,North,0,0.0,0.0,22,0.00,,,0.00,WUHU216HW,2013-03-28 19:20:00,
2013-03-28 15:25:00,59.4,20.3,30.19,North,0,0.0,0.0,22,0.00,,,0.00,WUHU216HW,2013-03-28 19:25:00,
2013-03-28 15:30:00,59.6,20.4,30.19,North,0,0.0,0.0,22,0.00,,,0.00,WUHU216HW,2013-03-28 19:30:00,
2013-03-28 15:35:00,59.8,19.6,30.19,North,0,0.0,0.0,21,0.00,,,0.00,WUHU216HW,2013-03-28 19:35:00,
2013-03-28 15:40:00,59.4,21.3,30.18,North,0,0.0,0.0,23,0.00,,,0.00,WUHU216HW,2013-03-28 19:40:00,
2013-03-28 15:45:00,59.8,20.6,30.18,North,0,0.0,0.0,22,0.00,,,0.00,WUHU216HW,2013-03-28 19:45:00,
2013-03-28 15:50:00,59.9,19.8,30.18,North,0,0.0,0.0,21,0.00,,,0.00,WUHU216HW,2013-03-28 19:50:00,
2013-03-28 15:55:00,59.6,20.4,30.18,North,0,0.0,0.0,22,0.00,,,0.00,WUHU216HW,2013-03-28 19:55:00,
2013-03-28 16:00:00,59.6,20.4,30.18,North,0,0.0,0.0,22,0.00,,,0.00,WUHU216HW,2013-03-28 20:00:00,
2013-03-28 16:05:00,59.8,19.6,30.17,North,0,0.0,0.0,21,0.00,,,0.00,WUHU216HW,2013-03-28 20:05:00,
2013-03-28 16:10:00,59.9,19.8,30.17,North,0,0.0,0.0,21,0.00,,,0.00,WUHU216HW,2013-03-28 20:10:00,
2013-03-28 16:15:00,60.1,19.9,30.17,North,0,0.0,0.0,21,0.00,,,0.00,WUHU216HW,2013-03-28 20:15:00,
2013-03-28 16:21:00,60.3,20.1,30.17,North,0,0.0,0.0,21,0.00,,,0.00,WUHU216HW,2013-03-28 20:21:00,
2013-03-28 16:26:00,60.5,20.3,30.17,North,0,0.0,0.0,21,0.00,,,0.00,WUHU216HW,2013-03-28 20:26:00,
2013-03-28 16:31:00,60.5,20.3,30.17,North,0,0.0,0.0,21,0.00,,,0.00,WUHU216HW,2013-03-28 20:31:00,
2013-03-28 16:36:00,60.1,19.9,30.16,North,0,0.0,0.0,21,0.00,,,0.00,WUHU216HW,2013-03-28 20:36:00,
2013-03-28 16:41:00,60.1,17.4,30.17,North,0,0.0,0.0,19,0.00,,,0.00,WUHU216HW,2013-03-28 20:41:00,
2013-03-28 16:47:00,60.3,20.1,30.17,North,0,0.0,0.0,21,0.00,,,0.00,WUHU216HW,2013-03-28 20:47:00,
2013-03-28 16:52:00,60.5,20.3,30.17,North,0,0.0,0.0,21,0.00,,,0.00,WUHU216HW,2013-03-28 20:52:00,
2013-03-28 16:57:00,60.5,20.3,30.17,North,0,0.0,0.0,21,0.00,,,0.00,WUHU216HW,2013-03-28 20:57:00,
2013-03-28 17:02:00,60.3,19.2,30.16,North,0,0.0,0.0,20,0.00,,,0.00,WUHU216HW,2013-03-28 21:02:00,
2013-03-28 17:07:00,60.3,20.1,30.17,North,0,0.0,0.0,21,0.00,,,0.00,WUHU216HW,2013-03-28 21:07:00,
2013-03-28 17:12:00,60.5,20.3,30.17,North,0,0.0,0.0,21,0.00,,,0.00,WUHU216HW,2013-03-28 21:12:00,
2013-03-28 17:17:00,60.1,19.9,30.16,North,0,0.0,0.0,21,0.00,,,0.00,WUHU216HW,2013-03-28 21:17:00,
2013-03-28 17:22:00,60.1,19.9,30.17,North,0,0.0,0.0,21,0.00,,,0.00,WUHU216HW,2013-03-28 21:22:00,
2013-03-28 17:27:00,59.9,19.8,30.16,North,0,0.0,0.0,21,0.00,,,0.00,WUHU216HW,2013-03-28 21:27:00,
2013-03-28 17:32:00,59.8,19.6,30.17,North,0,0.0,0.0,21,0.00,,,0.00,WUHU216HW,2013-03-28 21:32:00,
2013-03-28 17:37:00,59.4,19.3,30.17,North,0,0.0,0.0,21,0.00,,,0.00,WUHU216HW,2013-03-28 21:37:00,
2013-03-28 17:42:00,59.2,19.2,30.17,North,0,0.0,0.0,21,0.00,,,0.00,WUHU216HW,2013-03-28 21:42:00,
2013-03-28 17:47:00,59.2,19.2,30.17,North,0,0.0,0.0,21,0.00,,,0.00,WUHU216HW,2013-03-28 21:47:00,
2013-03-28 17:52:00,59.2,19.2,30.17,North,0,0.0,0.0,21,0.00,,,0.00,WUHU216HW,2013-03-28 21:52:00,
2013-03-28 17:57:00,59.2,19.2,30.17,North,0,0.0,0.0,21,0.00,,,0.00,WUHU216HW,2013-03-28 21:57:00,
2013-03-28 18:02:00,59.0,19.0,30.18,North,0,0.0,0.0,21,0.00,,,0.00,WUHU216HW,2013-03-28 22:02:00,
2013-03-28 18:07:00,58.9,17.8,30.18,North,0,0.0,0.0,20,0.00,,,0.00,WUHU216HW,2013-03-28 22:07:00,
2013-03-28 18:12:00,58.7,17.7,30.18,North,0,0.0,0.0,20,0.00,,,0.00,WUHU216HW,2013-03-28 22:12:00,
2013-03-28 18:17:00,58.5,18.6,30.18,North,0,0.0,0.0,21,0.00,,,0.00,WUHU216HW,2013-03-28 22:17:00,
2013-03-28 18:23:00,58.3,18.4,30.18,North,0,0.0,0.0,21,0.00,,,0.00,WUHU216HW,2013-03-28 22:23:00,
2013-03-28 18:28:00,58.3,18.4,30.18,North,0,0.0,0.0,21,0.00,,,0.00,WUHU216HW,2013-03-28 22:28:00,
2013-03-28 18:33:00,58.1,18.3,30.18,North,0,0.0,0.0,21,0.00,,,0.00,WUHU216HW,2013-03-28 22:33:00,
2013-03-28 18:38:00,58.0,17.1,30.18,North,0,0.0,0.0,20,0.00,,,0.00,WUHU216HW,2013-03-28 22:38:00,
2013-03-28 18:43:00,57.8,17.9,30.19,North,0,0.0,0.0,21,0.00,,,0.00,WUHU216HW,2013-03-28 22:43:00,
2013-03-28 18:48:00,57.4,16.8,30.19,North,0,0.0,0.0,20,0.00,,,0.00,WUHU216HW,2013-03-28 22:48:00,
2013-03-28 18:53:00,57.2,17.6,30.19,North,0,0.0,0.0,21,0.00,,,0.00,WUHU216HW,2013-03-28 22:53:00,
2013-03-28 18:58:00,56.9,17.2,30.19,North,0,0.0,0.0,21,0.00,,,0.00,WUHU216HW,2013-03-28 22:58:00,
2013-03-28 19:03:00,56.7,17.1,30.19,North,0,0.0,0.0,21,0.00,,,0.00,WUHU216HW,2013-03-28 23:03:00,
2013-03-28 19:08:00,56.5,16.9,30.19,North,0,0.0,0.0,21,0.00,,,0.00,WUHU216HW,2013-03-28 23:08:00,
2013-03-28 19:13:00,56.0,17.5,30.19,North,0,0.0,0.0,22,0.00,,,0.00,WUHU216HW,2013-03-28 23:13:00,
2013-03-28 19:18:00,55.8,17.3,30.19,North,0,0.0,0.0,22,0.00,,,0.00,WUHU216HW,2013-03-28 23:18:00,
2013-03-28 19:23:00,55.6,17.1,30.20,North,0,0.0,0.0,22,0.00,,,0.00,WUHU216HW,2013-03-28 23:23:00,
2013-03-28 19:29:00,55.3,17.7,30.20,North,0,0.0,0.0,23,0.00,,,0.00,WUHU216HW,2013-03-28 23:29:00,
2013-03-28 19:34:00,54.9,17.5,30.20,North,0,0.0,0.0,23,0.00,,,0.00,WUHU216HW,2013-03-28 23:34:00,
2013-03-28 19:39:00,54.5,18.1,30.20,North,0,0.0,0.0,24,0.00,,,0.00,WUHU216HW,2013-03-28 23:39:00,
2013-03-28 19:44:00,54.4,17.0,30.20,North,0,0.0,0.0,23,0.00,,,0.00,WUHU216HW,2013-03-28 23:44:00,
2013-03-28 19:49:00,53.6,17.3,30.20,North,0,0.0,0.0,24,0.00,,,0.00,WUHU216HW,2013-03-28 23:49:00,
2013-03-28 19:54:00,53.1,17.8,30.21,North,0,0.0,0.0,25,0.00,,,0.00,WUHU216HW,2013-03-28 23:54:00,
2013-03-28 19:59:00,52.9,17.6,30.21,North,0,0.0,0.0,25,0.00,,,0.00,WUHU216HW,2013-03-28 23:59:00,
2013-03-28 20:04:00,52.9,17.6,30.21,North,0,0.0,0.0,25,0.00,,,0.00,WUHU216HW,2013-03-29 00:04:00,
2013-03-28 20:09:00,52.9,17.6,30.21,North,0,0.0,0.0,25,0.00,,,0.00,WUHU216HW,2013-03-29 00:09:00,
2013-03-28 20:14:00,52.0,18.8,30.22,North,0,0.0,0.0,27,0.00,,,0.00,WUHU216HW,2013-03-29 00:14:00,
2013-03-28 20:19:00,51.8,18.6,30.22,North,0,0.0,0.0,27,0.00,,,0.00,WUHU216HW,2013-03-29 00:19:00,
2013-03-28 20:24:00,51.7,19.4,30.22,North,0,0.0,0.0,28,0.00,,,0.00,WUHU216HW,2013-03-29 00:24:00,
2013-03-28 20:29:00,51.7,19.4,30.23,North,0,0.0,0.0,28,0.00,,,0.00,WUHU216HW,2013-03-29 00:29:00,
2013-03-28 20:35:00,51.5,20.2,30.23,North,0,0.0,0.0,29,0.00,,,0.00,WUHU216HW,2013-03-29 00:35:00,
2013-03-28 20:40:00,51.3,20.0,30.23,North,0,0.0,0.0,29,0.00,,,0.00,WUHU216HW,2013-03-29 00:40:00,
2013-03-28 20:45:00,51.3,20.0,30.23,North,0,0.0,0.0,29,0.00,,,0.00,WUHU216HW,2013-03-29 00:45:00,
2013-03-28 20:50:00,51.3,20.0,30.23,North,0,0.0,0.0,29,0.00,,,0.00,WUHU216HW,2013-03-29 00:50:00,
2013-03-28 20:55:00,50.0,21.2,30.24,North,0,0.0,0.0,32,0.00,,,0.00,WUHU216HW,2013-03-29 00:55:00,
2013-03-28 21:00:00,49.9,20.4,30.24,North,0,0.0,0.0,31,0.00,,,0.00,WUHU216HW,2013-03-29 01:00:00,
2013-03-28 21:05:00,49.7,22.2,30.24,North,0,0.0,0.0,34,0.00,,,0.00,WUHU216HW,2013-03-29 01:05:00,
2013-03-28 21:10:00,49.9,23.8,30.24,North,0,0.0,0.0,36,0.00,,,0.00,WUHU216HW,2013-03-29 01:10:00,
2013-03-28 21:15:00,49.7,23.6,30.24,North,0,0.0,0.0,36,0.00,,,0.00,WUHU216HW,2013-03-29 01:15:00,
2013-03-28 21:20:00,49.5,23.4,30.24,North,0,0.0,0.0,36,0.00,,,0.00,WUHU216HW,2013-03-29 01:20:00,
2013-03-28 21:25:00,49.1,23.1,30.24,North,0,0.0,0.0,36,0.00,,,0.00,WUHU216HW,2013-03-29 01:25:00,
2013-03-28 21:30:00,48.1,22.2,30.25,North,0,0.0,0.0,36,0.00,,,0.00,WUHU216HW,2013-03-29 01:30:00,
2013-03-28 21:35:00,47.5,23.0,30.25,North,0,0.0,0.0,38,0.00,,,0.00,WUHU216HW,2013-03-29 01:35:00,
2013-03-28 21:40:00,47.2,22.7,30.25,North,0,0.0,0.0,38,0.00,,,0.00,WUHU216HW,2013-03-29 01:40:00,
2013-03-28 21:46:00,47.0,23.2,30.25,North,0,0.0,0.0,39,0.00,,,0.00,WUHU216HW,2013-03-29 01:46:00,
2013-03-28 21:51:00,47.0,23.2,30.25,North,0,0.0,0.0,39,0.00,,,0.00,WUHU216HW,2013-03-29 01:51:00,
2013-03-28 21:57:00,47.0,23.2,30.25,North,0,0.0,0.0,39,0.00,,,0.00,WUHU216HW,2013-03-29 01:57:00,
2013-03-28 22:02:00,47.2,22.7,30.26,North,0,0.0,0.0,38,0.00,,,0.00,WUHU216HW,2013-03-29 02:02:00,
2013-03-28 22:07:00,47.0,22.6,30.26,North,0,0.0,0.0,38,0.00,,,0.00,WUHU216HW,2013-03-29 02:07:00,
2013-03-28 22:12:00,46.3,22.6,30.26,North,0,0.0,0.0,39,0.00,,,0.00,WUHU216HW,2013-03-29 02:12:00,
2013-03-28 22:17:00,46.1,23.6,30.25,North,0,0.0,0.0,41,0.00,,,0.00,WUHU216HW,2013-03-29 02:17:00,
2013-03-28 22:22:00,45.9,22.2,30.26,North,0,0.0,0.0,39,0.00,,,0.00,WUHU216HW,2013-03-29 02:22:00,
2013-03-28 22:27:00,45.4,22.4,30.26,North,0,0.0,0.0,40,0.00,,,0.00,WUHU216HW,2013-03-29 02:27:00,
2013-03-28 22:32:00,44.8,22.0,30.26,North,0,0.0,0.0,40,0.00,,,0.00,WUHU216HW,2013-03-29 02:32:00,
2013-03-28 22:37:00,43.6,21.3,30.26,North,0,0.0,0.0,41,0.00,,,0.00,WUHU216HW,2013-03-29 02:37:00,
2013-03-28 22:42:00,42.8,20.7,30.26,North,0,0.0,0.0,41,0.00,,,0.00,WUHU216HW,2013-03-29 02:42:00,
2013-03-28 22:47:00,42.7,21.1,30.27,North,0,0.0,0.0,42,0.00,,,0.00,WUHU216HW,2013-03-29 02:47:00,
2013-03-28 22:52:00,42.5,20.9,30.27,North,0,0.0,0.0,42,0.00,,,0.00,WUHU216HW,2013-03-29 02:52:00,
2013-03-28 22:57:00,42.8,21.8,30.26,North,0,0.0,0.0,43,0.00,,,0.00,WUHU216HW,2013-03-29 02:57:00,
2013-03-28 23:02:00,43.0,22.5,30.26,North,0,0.0,0.0,44,0.00,,,0.00,WUHU216HW,2013-03-29 03:02:00,
2013-03-28 23:07:00,43.0,22.5,30.27,North,0,0.0,0.0,44,0.00,,,0.00,WUHU216HW,2013-03-29 03:07:00,
2013-03-28 23:14:00,43.2,22.2,30.27,North,0,0.0,0.0,43,0.00,,,0.00,WUHU216HW,2013-03-29 03:14:00,
2013-03-28 23:19:00,42.7,21.6,30.27,North,0,0.0,0.0,43,0.00,,,0.00,WUHU216HW,2013-03-29 03:19:00,
2013-03-28 23:24:00,41.8,20.8,30.27,North,0,0.0,0.0,43,0.00,,,0.00,WUHU216HW,2013-03-29 03:24:00,
2013-03-28 23:29:00,41.4,21.0,30.27,North,0,0.0,0.0,44,0.00,,,0.00,WUHU216HW,2013-03-29 03:29:00,
2013-03-28 23:34:00,40.9,20.4,30.27,North,0,0.0,0.0,44,0.00,,,0.00,WUHU216HW,2013-03-29 03:34:00,
2013-03-28 23:39:00,40.5,20.7,30.27,North,0,0.0,0.0,45,0.00,,,0.00,WUHU216HW,2013-03-29 03:39:00,
2013-03-28 23:44:00,40.1,20.3,30.27,North,0,0.0,0.0,45,0.00,,,0.00,WUHU216HW,2013-03-29 03:44:00,
2013-03-28 23:49:00,40.5,21.7,30.27,North,0,0.0,0.0,47,0.00,,,0.00,WUHU216HW,2013-03-29 03:49:00,
2013-03-28 23:54:00,40.9,22.1,30.27,North,0,0.0,0.0,47,0.00,,,0.00,WUHU216HW,2013-03-29 03:54:00,
2013-03-28 23:59:00,40.7,21.3,30.27,North,0,0.0,0.0,46,0.00,,,0.00,WUHU216HW,2013-03-29 03:59:00,